Straumvik — LEYJ — position and weather

sailwx.info

Track history (hours):
 
Tides and Currents Weather Stations Pressure Air Temp Water Temp Dewpoint Dewpoint Depression Visibility Wind Speed Wind Dir Waves Ship Positions

Straumvik

Last reported at 2015-Feb-27 22:33 UTC. Time now 2015-Mar-01 06:55 UTC.
Position N 69°39' E 018°60'.

Length 50 m; draft 5 m.

Type: Ship. MMSI: 258260000.

Date/timePositionNaut miles runAvg speedWind from/ knotsBaromVisibWave heightAir tempDewpointWater temp
2015-Feb-27 22:33N 69°39' E 018°60'149 8.1
2015-Feb-27 04:07N 67°49' E 014°25'13 8.3
2015-Feb-27 02:33N 67°36' E 014°20'8 8.4
2015-Feb-27 01:33N 67°28' E 014°24'8 7.9
2015-Feb-27 00:34N 67°20' E 014°22'3 2.9
2015-Feb-26 23:34N 67°17' E 014°23'0 0.0
2015-Feb-26 22:33N 67°17' E 014°23'0 0.0
2015-Feb-26 21:34N 67°17' E 014°23'0 0.0
2015-Feb-26 20:34N 67°17' E 014°23'0 0.0
2015-Feb-26 19:34N 67°17' E 014°23'0 0.0
2015-Feb-26 18:34N 67°17' E 014°23'0 0.0
2015-Feb-26 17:34N 67°17' E 014°23'0 0.0
2015-Feb-26 16:34N 67°17' E 014°23'0 0.0
2015-Feb-26 15:34N 67°17' E 014°23'0 0.0
2015-Feb-26 14:34N 67°17' E 014°23'0 0.0
2015-Feb-26 13:33N 67°17' E 014°23'0 0.0
2015-Feb-26 12:34N 67°17' E 014°23'0 0.0
2015-Feb-26 11:33N 67°17' E 014°23'0 0.0
2015-Feb-26 10:34N 67°17' E 014°23'0 0.0
2015-Feb-26 09:34N 67°17' E 014°23'0 0.0
2015-Feb-26 08:33N 67°17' E 014°23'0 0.0
2015-Feb-26 07:34N 67°17' E 014°23'0 0.0
2015-Feb-26 06:33N 67°17' E 014°23'0 0.0
2015-Feb-26 05:34N 67°17' E 014°23'0 0.0
2015-Feb-26 04:34N 67°17' E 014°23'0 0.0
2015-Feb-26 03:34N 67°17' E 014°23'0 0.0
2015-Feb-26 02:34N 67°17' E 014°23'0 0.0
2015-Feb-26 01:34N 67°17' E 014°23'0 0.0
2015-Feb-26 00:34N 67°17' E 014°23'0 0.0
2015-Feb-25 23:34N 67°17' E 014°23'0 0.0
2015-Feb-25 22:33N 67°17' E 014°23'0 0.0
2015-Feb-25 21:34N 67°17' E 014°23'0 0.0
2015-Feb-25 20:33N 67°17' E 014°23'0 0.0
2015-Feb-25 19:34N 67°17' E 014°23'0 0.0
2015-Feb-25 18:33N 67°17' E 014°23'0 0.0
2015-Feb-25 17:34N 67°17' E 014°23'0 0.0
2015-Feb-25 16:34N 67°17' E 014°23'0 0.0
2015-Feb-25 15:34N 67°17' E 014°23'0 0.0
2015-Feb-25 14:34N 67°17' E 014°23'0 0.2
2015-Feb-25 13:34N 67°17' E 014°22'1 1.0
2015-Feb-25 12:33N 67°16' E 014°21'0 0.0
2015-Feb-25 11:33N 67°16' E 014°21'0 0.0
2015-Feb-25 10:34N 67°16' E 014°21'0 0.0
2015-Feb-25 09:34N 67°16' E 014°21'0 0.0
2015-Feb-25 08:34N 67°16' E 014°21'0 0.0
2015-Feb-25 07:34N 67°16' E 014°21'0 0.0
2015-Feb-25 06:34N 67°16' E 014°21'0 0.1
2015-Feb-25 05:34N 67°16' E 014°20'4 3.9
2015-Feb-25 04:33N 67°14' E 014°13'4 3.8
2015-Feb-25 03:33N 67°11' E 014°06'6 6.3
2015-Feb-25 02:32N 67°06' E 013°57'14 6.6
2015-Feb-25 00:29N 66°57' E 013°29'33 6.4
2015-Feb-24 19:21N 66°27' E 012°60'79 5.3
2015-Feb-24 04:32N 65°12' E 011°53'8 8.3
2015-Feb-24 03:33N 65°05' E 011°46'8 7.9
2015-Feb-24 02:34N 64°59' E 011°35'8 8.4
2015-Feb-24 01:33N 64°53' E 011°19'9 8.6
2015-Feb-24 00:34N 64°47' E 011°05'  
2015-Feb-20 13:25N 59°30' E 005°13'6 6.7
2015-Feb-20 12:32N 59°24' E 005°16'14 6.8
2015-Feb-20 10:26N 59°12' E 005°30'7 7.4
2015-Feb-20 09:27N 59°09' E 005°43'7 7.9
2015-Feb-20 08:33N 59°03' E 005°51'8 7.7
2015-Feb-20 07:34N 58°57' E 005°59'7 6.1
2015-Feb-20 06:23N 58°52' E 006°09'0 0.0
2015-Feb-20 05:31N 58°52' E 006°09'0 0.0
2015-Feb-20 04:33N 58°52' E 006°09'4 4.1
2015-Feb-20 03:33N 58°55' E 006°03'4 4.1
2015-Feb-20 02:34N 58°57' E 005°57'4 4.3
2015-Feb-20 01:34N 59°01' E 005°52'5 4.5
2015-Feb-20 00:33N 59°05' E 005°50'5 4.6
2015-Feb-19 23:33N 59°08' E 005°44'6 5.7
2015-Feb-19 22:33N 59°11' E 005°34'7 6.1
2015-Feb-19 21:27N 59°15' E 005°23'11 5.8
2015-Feb-19 19:32N 59°25' E 005°14'61 1.6
2015-Feb-18 04:27N 60°26' E 005°16'  
Track history (hours):
 
Tides and Currents Weather Stations Pressure Air Temp Water Temp Dewpoint Dewpoint Depression Visibility Wind Speed Wind Dir Waves Ship Positions

Straumvik

Last reported at 2015-Feb-27 22:33 UTC. Time now 2015-Mar-01 06:55 UTC.
Position N 69°39' E 018°60'.

Length 50 m; draft 5 m.

Type: Ship. MMSI: 258260000.

Date/timePositionNaut miles runAvg speedWind from/ knotsBaromVisibWave heightAir tempDewpointWater temp
2015-Feb-27 22:33N 69°39' E 018°60'149 8.1
2015-Feb-27 04:07N 67°49' E 014°25'13 8.3
2015-Feb-27 02:33N 67°36' E 014°20'8 8.4
2015-Feb-27 01:33N 67°28' E 014°24'8 7.9
2015-Feb-27 00:34N 67°20' E 014°22'3 2.9
2015-Feb-26 23:34N 67°17' E 014°23'0 0.0
2015-Feb-26 22:33N 67°17' E 014°23'0 0.0
2015-Feb-26 21:34N 67°17' E 014°23'0 0.0
2015-Feb-26 20:34N 67°17' E 014°23'0 0.0
2015-Feb-26 19:34N 67°17' E 014°23'0 0.0
2015-Feb-26 18:34N 67°17' E 014°23'0 0.0
2015-Feb-26 17:34N 67°17' E 014°23'0 0.0
2015-Feb-26 16:34N 67°17' E 014°23'0 0.0
2015-Feb-26 15:34N 67°17' E 014°23'0 0.0
2015-Feb-26 14:34N 67°17' E 014°23'0 0.0
2015-Feb-26 13:33N 67°17' E 014°23'0 0.0
2015-Feb-26 12:34N 67°17' E 014°23'0 0.0
2015-Feb-26 11:33N 67°17' E 014°23'0 0.0
2015-Feb-26 10:34N 67°17' E 014°23'0 0.0
2015-Feb-26 09:34N 67°17' E 014°23'0 0.0
2015-Feb-26 08:33N 67°17' E 014°23'0 0.0
2015-Feb-26 07:34N 67°17' E 014°23'0 0.0
2015-Feb-26 06:33N 67°17' E 014°23'0 0.0
2015-Feb-26 05:34N 67°17' E 014°23'0 0.0
2015-Feb-26 04:34N 67°17' E 014°23'0 0.0
2015-Feb-26 03:34N 67°17' E 014°23'0 0.0
2015-Feb-26 02:34N 67°17' E 014°23'0 0.0
2015-Feb-26 01:34N 67°17' E 014°23'0 0.0
2015-Feb-26 00:34N 67°17' E 014°23'0 0.0
2015-Feb-25 23:34N 67°17' E 014°23'0 0.0
2015-Feb-25 22:33N 67°17' E 014°23'0 0.0
2015-Feb-25 21:34N 67°17' E 014°23'0 0.0
2015-Feb-25 20:33N 67°17' E 014°23'0 0.0
2015-Feb-25 19:34N 67°17' E 014°23'0 0.0
2015-Feb-25 18:33N 67°17' E 014°23'0 0.0
2015-Feb-25 17:34N 67°17' E 014°23'0 0.0
2015-Feb-25 16:34N 67°17' E 014°23'0 0.0
2015-Feb-25 15:34N 67°17' E 014°23'0 0.0
2015-Feb-25 14:34N 67°17' E 014°23'0 0.2
2015-Feb-25 13:34N 67°17' E 014°22'1 1.0
2015-Feb-25 12:33N 67°16' E 014°21'0 0.0
2015-Feb-25 11:33N 67°16' E 014°21'0 0.0
2015-Feb-25 10:34N 67°16' E 014°21'0 0.0
2015-Feb-25 09:34N 67°16' E 014°21'0 0.0
2015-Feb-25 08:34N 67°16' E 014°21'0 0.0
2015-Feb-25 07:34N 67°16' E 014°21'0 0.0
2015-Feb-25 06:34N 67°16' E 014°21'0 0.1
2015-Feb-25 05:34N 67°16' E 014°20'4 3.9
2015-Feb-25 04:33N 67°14' E 014°13'4 3.8
2015-Feb-25 03:33N 67°11' E 014°06'6 6.3
2015-Feb-25 02:32N 67°06' E 013°57'14 6.6
2015-Feb-25 00:29N 66°57' E 013°29'33 6.4
2015-Feb-24 19:21N 66°27' E 012°60'79 5.3
2015-Feb-24 04:32N 65°12' E 011°53'8 8.3
2015-Feb-24 03:33N 65°05' E 011°46'8 7.9
2015-Feb-24 02:34N 64°59' E 011°35'8 8.4
2015-Feb-24 01:33N 64°53' E 011°19'9 8.6
2015-Feb-24 00:34N 64°47' E 011°05'  
2015-Feb-20 13:25N 59°30' E 005°13'6 6.7
2015-Feb-20 12:32N 59°24' E 005°16'14 6.8
2015-Feb-20 10:26N 59°12' E 005°30'7 7.4
2015-Feb-20 09:27N 59°09' E 005°43'7 7.9
2015-Feb-20 08:33N 59°03' E 005°51'8 7.7
2015-Feb-20 07:34N 58°57' E 005°59'7 6.1
2015-Feb-20 06:23N 58°52' E 006°09'0 0.0
2015-Feb-20 05:31N 58°52' E 006°09'0 0.0
2015-Feb-20 04:33N 58°52' E 006°09'4 4.1
2015-Feb-20 03:33N 58°55' E 006°03'4 4.1
2015-Feb-20 02:34N 58°57' E 005°57'4 4.3
2015-Feb-20 01:34N 59°01' E 005°52'5 4.5
2015-Feb-20 00:33N 59°05' E 005°50'5 4.6
2015-Feb-19 23:33N 59°08' E 005°44'6 5.7
2015-Feb-19 22:33N 59°11' E 005°34'7 6.1
2015-Feb-19 21:27N 59°15' E 005°23'11 5.8
2015-Feb-19 19:32N 59°25' E 005°14'61 1.6
2015-Feb-18 04:27N 60°26' E 005°16'  

Dump ship's entire track history